createdAt,value
2018-03-14T00:00:56.199Z,100292.36
2018-03-14T00:01:58.723Z,100291.55
2018-03-14T00:03:01.251Z,100283.86
2018-03-14T00:04:03.783Z,100288.56
2018-03-14T00:05:06.325Z,100285.58
2018-03-14T00:06:08.844Z,100293.84
2018-03-14T00:07:11.374Z,100291.25
2018-03-14T00:08:13.862Z,100292.62
2018-03-14T00:09:16.443Z,100292.39
2018-03-14T00:10:18.982Z,100297.91
2018-03-14T00:11:21.512Z,100296.12
2018-03-14T00:12:24.043Z,100291.19
2018-03-14T00:13:26.577Z,100296.69
2018-03-14T00:14:29.122Z,100293.54
2018-03-14T00:15:31.664Z,100298.88
2018-03-14T00:16:34.210Z,100305.19
2018-03-14T00:17:36.732Z,100298.30
2018-03-14T00:18:39.252Z,100291.99
2018-03-14T00:19:41.800Z,100294.34
2018-03-14T00:20:44.350Z,100299.21
2018-03-14T00:21:46.862Z,100294.68
2018-03-14T00:22:49.381Z,100295.19
2018-03-14T00:23:51.901Z,100288.47
2018-03-14T00:24:54.428Z,100294.15
2018-03-14T00:25:57.005Z,100293.48
2018-03-14T00:26:59.518Z,100295.03
2018-03-14T00:28:02.030Z,100295.36
2018-03-14T00:29:04.554Z,100297.71
2018-03-14T00:30:07.063Z,100300.23
2018-03-14T00:31:09.744Z,100295.30
2018-03-14T00:32:12.272Z,100292.31
2018-03-14T00:33:14.796Z,100301.55
2018-03-14T00:34:17.308Z,100298.79
2018-03-14T00:35:19.842Z,100298.22
2018-03-14T00:36:22.379Z,100303.16
2018-03-14T00:37:24.910Z,100304.36
2018-03-14T00:38:27.422Z,100300.06
2018-03-14T00:39:29.971Z,100298.69
2018-03-14T00:40:32.486Z,100299.27
2018-03-14T00:41:35.052Z,100303.80
2018-03-14T00:42:37.599Z,100299.42
2018-03-14T00:43:40.142Z,100298.28
2018-03-14T00:44:42.667Z,100299.83
2018-03-14T00:45:45.210Z,100297.25
2018-03-14T00:46:47.756Z,100304.53
2018-03-14T00:47:50.288Z,100303.72
2018-03-14T00:48:52.818Z,100304.70
2018-03-14T00:49:55.355Z,100308.42
2018-03-14T00:50:57.873Z,100312.56
2018-03-14T00:52:00.408Z,100303.09
2018-03-14T00:53:02.944Z,100296.78
2018-03-14T00:54:05.486Z,100302.69
2018-03-14T00:55:08.023Z,100299.53
2018-03-14T00:56:10.562Z,100296.38
2018-03-14T00:57:13.159Z,100298.16
2018-03-14T00:58:15.702Z,100295.56
2018-03-14T00:59:18.225Z,100294.19
2018-03-14T01:00:20.746Z,100291.44
2018-03-14T01:01:23.268Z,100288.86
2018-03-14T01:02:25.816Z,100298.09
2018-03-14T01:03:28.342Z,100297.86
2018-03-14T01:04:30.882Z,100291.95
2018-03-14T01:05:33.412Z,100301.58
2018-03-14T01:06:35.928Z,100301.75
2018-03-14T01:07:38.472Z,100299.56
2018-03-14T01:08:41.017Z,100299.40
2018-03-14T01:09:43.535Z,100295.27
2018-03-14T01:10:46.069Z,100290.73
2018-03-14T01:11:48.583Z,100290.73
2018-03-14T01:12:51.138Z,100287.98
2018-03-14T01:13:53.660Z,100292.52
2018-03-14T01:14:56.185Z,100292.11
2018-03-14T01:15:58.725Z,100293.48
2018-03-14T01:17:01.244Z,100294.47
2018-03-14T01:18:03.816Z,100290.73
2018-03-14T01:19:06.345Z,100291.71
2018-03-14T01:20:08.883Z,100290.91
2018-03-14T01:21:11.426Z,100297.78
2018-03-14T01:22:13.926Z,100296.58
2018-03-14T01:23:16.487Z,100289.13
2018-03-14T01:24:18.993Z,100297.63
2018-03-14T01:25:21.518Z,100298.83
2018-03-14T01:26:24.049Z,100297.45
2018-03-14T01:27:26.573Z,100293.48
2018-03-14T01:28:29.124Z,100288.22
2018-03-14T01:29:31.654Z,100288.63
2018-03-14T01:30:34.243Z,100289.83
2018-03-14T01:31:36.758Z,100294.36
2018-03-14T01:32:39.268Z,100290.63
2018-03-14T01:33:41.826Z,100288.69
2018-03-14T01:34:44.353Z,100288.69
2018-03-14T01:35:46.895Z,100287.88
2018-03-14T01:36:49.418Z,100296.55
2018-03-14T01:37:51.944Z,100286.91
2018-03-14T01:38:54.506Z,100291.84
2018-03-14T01:39:57.044Z,100299.13
2018-03-14T01:40:59.578Z,100290.47
2018-03-14T01:42:02.113Z,100288.52
2018-03-14T01:43:04.624Z,100289.09
2018-03-14T01:44:07.197Z,100287.48
2018-03-14T01:45:09.724Z,100294.13
2018-03-14T01:46:12.248Z,100290.73
2018-03-14T01:47:14.759Z,100288.72
2018-03-14T01:48:17.306Z,100290.27
2018-03-14T01:49:19.857Z,100288.42
2018-03-14T01:50:22.380Z,100288.16
2018-03-14T01:51:24.928Z,100285.74
2018-03-14T01:52:27.473Z,100284.13
2018-03-14T01:53:30.015Z,100277.02
2018-03-14T01:54:32.557Z,100276.61
2018-03-14T01:55:35.093Z,100282.69
2018-03-14T01:56:37.612Z,100277.92
2018-03-14T01:57:40.144Z,100278.50
2018-03-14T01:58:42.682Z,100283.59
2018-03-14T01:59:45.222Z,100280.61
2018-03-14T02:00:47.748Z,100281.75
2018-03-14T02:01:50.277Z,100275.67
2018-03-14T02:02:52.822Z,100281.92
2018-03-14T02:03:55.338Z,100278.77
2018-03-14T02:04:57.862Z,100282.89
2018-03-14T02:06:00.376Z,100284.27
2018-03-14T02:07:02.914Z,100275.38
2018-03-14T02:08:05.436Z,100283.23
2018-03-14T02:09:07.951Z,100281.62
2018-03-14T02:10:10.495Z,100280.81
2018-03-14T02:11:13.009Z,100285.51
2018-03-14T02:12:15.531Z,100280.41
2018-03-14T02:13:18.077Z,100280.01
2018-03-14T02:14:20.628Z,100286.08
2018-03-14T02:15:23.181Z,100279.20
2018-03-14T02:16:25.722Z,100280.31
2018-03-14T02:17:28.240Z,100284.84
2018-03-14T02:18:30.767Z,100278.94
2018-03-14T02:19:33.304Z,100281.69
2018-03-14T02:20:35.860Z,100276.92
2018-03-14T02:21:38.405Z,100281.45
2018-03-14T02:22:40.932Z,100282.26
2018-03-14T02:23:43.466Z,100284.44
2018-03-14T02:24:45.983Z,100284.44
2018-03-14T02:25:48.534Z,100278.53
2018-03-14T02:26:51.056Z,100284.61
2018-03-14T02:27:53.576Z,100280.48
2018-03-14T02:28:56.114Z,100279.27
2018-03-14T02:29:58.630Z,100272.56
2018-03-14T02:31:01.190Z,100278.63
2018-03-14T02:32:03.720Z,100270.14
2018-03-14T02:33:06.236Z,100268.36
2018-03-14T02:34:08.746Z,100280.91
2018-03-14T02:35:11.258Z,100273.80
2018-03-14T02:36:13.798Z,100280.28
2018-03-14T02:37:16.326Z,100272.59
2018-03-14T02:38:18.866Z,100270.01
2018-03-14T02:39:21.404Z,100270.01
2018-03-14T02:40:23.920Z,100277.05
2018-03-14T02:41:26.483Z,100270.75
2018-03-14T02:42:29.088Z,100268.16
2018-03-14T02:43:31.614Z,100275.20
2018-03-14T02:44:34.145Z,100270.28
2018-03-14T02:45:36.654Z,100270.45
2018-03-14T02:46:39.180Z,100276.11
2018-03-14T02:47:41.682Z,100272.16
2018-03-14T02:48:44.186Z,100273.53
2018-03-14T02:49:46.715Z,100273.84
2018-03-14T02:50:49.212Z,100281.15
2018-03-14T02:51:51.747Z,100273.43
2018-03-14T02:52:54.239Z,100273.03
2018-03-14T02:53:56.737Z,100275.71
2018-03-14T02:54:59.241Z,100274.73
2018-03-14T02:56:01.747Z,100270.21
2018-03-14T02:57:04.272Z,100273.53
2018-03-14T02:58:06.767Z,100270.78
2018-03-14T02:59:09.261Z,100274.91
2018-03-14T03:00:11.772Z,100271.59
2018-03-14T03:01:14.280Z,100273.94
2018-03-14T03:02:16.911Z,100276.45
2018-03-14T03:03:19.417Z,100268.59
2018-03-14T03:04:21.910Z,100274.67
2018-03-14T03:05:24.432Z,100273.47
2018-03-14T03:06:27.050Z,100272.66
2018-03-14T03:07:29.590Z,100270.87
2018-03-14T03:08:32.084Z,100278.73
2018-03-14T03:09:34.588Z,100275.58
2018-03-14T03:10:37.109Z,100271.22
2018-03-14T03:11:39.612Z,100269.84
2018-03-14T03:12:42.126Z,100266.45
2018-03-14T03:13:44.625Z,100274.70
2018-03-14T03:14:47.112Z,100274.53
2018-03-14T03:15:49.627Z,100274.30
2018-03-14T03:16:52.146Z,100270.58
2018-03-14T03:17:54.670Z,100277.05
2018-03-14T03:18:57.177Z,100272.92
2018-03-14T03:19:59.693Z,100280.20
2018-03-14T03:21:02.206Z,100277.45
2018-03-14T03:22:04.706Z,100279.40
2018-03-14T03:23:07.239Z,100279.80
2018-03-14T03:24:09.734Z,100280.38
2018-03-14T03:25:12.251Z,100280.51
2018-03-14T03:26:14.752Z,100283.83
2018-03-14T03:27:17.262Z,100277.92
2018-03-14T03:28:19.788Z,100279.87
2018-03-14T03:29:22.411Z,100285.13
2018-03-14T03:30:24.914Z,100287.88
2018-03-14T03:31:27.411Z,100283.36
2018-03-14T03:32:29.906Z,100284.33
2018-03-14T03:33:32.443Z,100288.45
2018-03-14T03:34:34.932Z,100283.52
2018-03-14T03:35:37.446Z,100288.78
2018-03-14T03:36:39.972Z,100284.80
2018-03-14T03:37:42.486Z,100290.73
2018-03-14T03:38:45.026Z,100287.72
2018-03-14T03:39:47.539Z,100285.53
2018-03-14T03:40:50.041Z,100293.78
2018-03-14T03:41:52.558Z,100288.69
2018-03-14T03:42:55.070Z,100285.30
2018-03-14T03:43:57.610Z,100280.77
2018-03-14T03:45:00.117Z,100284.33
2018-03-14T03:46:02.629Z,100283.52
2018-03-14T03:47:05.128Z,100279.96
2018-03-14T03:48:07.618Z,100278.19
2018-03-14T03:49:10.134Z,100276.98
2018-03-14T03:50:12.645Z,100279.16
2018-03-14T03:51:15.138Z,100271.64
2018-03-14T03:52:17.647Z,100282.08
2018-03-14T03:53:20.159Z,100277.95
2018-03-14T03:54:22.684Z,100268.25
2018-03-14T03:55:25.189Z,100271.98
2018-03-14T03:56:27.700Z,100275.30
2018-03-14T03:57:30.228Z,100275.70
2018-03-14T03:58:32.755Z,100275.30
2018-03-14T03:59:35.311Z,100275.87
2018-03-14T04:00:37.842Z,100275.46
2018-03-14T04:01:40.366Z,100277.81
2018-03-14T04:02:42.888Z,100275.06
2018-03-14T04:03:45.431Z,100277.00
2018-03-14T04:04:47.956Z,100273.85
2018-03-14T04:05:50.486Z,100275.39
2018-03-14T04:06:53.004Z,100273.05
2018-03-14T04:07:55.490Z,100274.19
2018-03-14T04:08:58.012Z,100271.60
2018-03-14T04:10:00.558Z,100278.47
2018-03-14T04:11:03.089Z,100270.39
2018-03-14T04:12:05.586Z,100269.59
2018-03-14T04:13:08.097Z,100273.88
2018-03-14T04:14:10.604Z,100269.92
2018-03-14T04:15:13.148Z,100276.39
2018-03-14T04:16:15.665Z,100280.11
2018-03-14T04:17:18.182Z,100274.75
2018-03-14T04:18:20.694Z,100278.88
2018-03-14T04:19:23.218Z,100276.56
2018-03-14T04:20:25.755Z,100283.97
2018-03-14T04:21:28.301Z,100277.66
2018-03-14T04:22:30.813Z,100278.80
2018-03-14T04:23:33.331Z,100277.27
2018-03-14T04:24:35.844Z,100281.39
2018-03-14T04:25:38.354Z,100280.02
2018-03-14T04:26:40.871Z,100280.18
2018-03-14T04:27:43.422Z,100277.19
2018-03-14T04:28:45.908Z,100278.00
2018-03-14T04:29:48.423Z,100277.19
2018-03-14T04:30:50.952Z,100285.28
2018-03-14T04:31:53.464Z,100277.83
2018-03-14T04:32:55.955Z,100284.87
2018-03-14T04:33:58.455Z,100279.54
2018-03-14T04:35:00.965Z,100277.77
2018-03-14T04:36:03.531Z,100286.18
2018-03-14T04:37:06.026Z,100286.75
2018-03-14T04:38:08.916Z,100280.44
2018-03-14T04:39:11.600Z,100287.08
2018-03-14T04:40:14.103Z,100284.49
2018-03-14T04:41:16.619Z,100285.87
2018-03-14T04:42:19.131Z,100292.34
2018-03-14T04:43:21.630Z,100287.98
2018-03-14T04:44:24.142Z,100284.26
2018-03-14T04:45:26.663Z,100287.98
2018-03-14T04:46:29.186Z,100284.42
2018-03-14T04:47:31.678Z,100285.23
2018-03-14T04:48:34.200Z,100286.20
2018-03-14T04:49:36.700Z,100292.51
2018-03-14T04:50:39.188Z,100284.66
2018-03-14T04:51:41.712Z,100289.76
2018-03-14T04:52:44.203Z,100287.01
2018-03-14T04:53:46.689Z,100286.44
2018-03-14T04:54:49.190Z,100283.86
2018-03-14T04:55:51.692Z,100281.27
2018-03-14T04:56:54.206Z,100286.20
2018-03-14T04:57:56.711Z,100283.62
2018-03-14T04:58:59.222Z,100283.62
2018-03-14T05:00:01.743Z,100286.12
2018-03-14T05:01:04.240Z,100282.58
2018-03-14T05:02:06.780Z,100283.55
2018-03-14T05:03:09.282Z,100288.08
2018-03-14T05:04:11.785Z,100286.30
2018-03-14T05:05:14.414Z,100288.88
2018-03-14T05:06:16.907Z,100288.88
2018-03-14T05:07:19.428Z,100291.23
2018-03-14T05:08:21.944Z,100290.42
2018-03-14T05:09:24.452Z,100292.20
2018-03-14T05:10:26.983Z,100294.71
2018-03-14T05:11:29.479Z,100290.75
2018-03-14T05:12:32.015Z,100296.09
2018-03-14T05:13:34.515Z,100291.16
2018-03-14T05:14:37.021Z,100304.50
2018-03-14T05:15:39.516Z,100298.59
2018-03-14T05:16:42.030Z,100297.95
2018-03-14T05:17:44.543Z,100297.55
2018-03-14T05:18:47.061Z,100300.70
2018-03-14T05:19:49.689Z,100295.34
2018-03-14T05:20:52.206Z,100297.69
2018-03-14T05:21:54.709Z,100296.48
2018-03-14T05:22:57.233Z,100296.88
2018-03-14T05:23:59.744Z,100297.05
2018-03-14T05:25:02.239Z,100295.27
2018-03-14T05:26:04.756Z,100295.67
2018-03-14T05:27:07.265Z,100294.87
2018-03-14T05:28:09.790Z,100298.59
2018-03-14T05:29:12.305Z,100295.27
2018-03-14T05:30:14.826Z,100299.23
2018-03-14T05:31:17.341Z,100299.06
2018-03-14T05:32:19.861Z,100296.31
2018-03-14T05:33:22.410Z,100295.11
2018-03-14T05:34:24.915Z,100295.91
2018-03-14T05:35:27.430Z,100299.63
2018-03-14T05:36:29.933Z,100296.48
2018-03-14T05:37:32.463Z,100301.17
2018-03-14T05:38:34.966Z,100300.37
2018-03-14T05:39:37.564Z,100300.37
2018-03-14T05:40:40.277Z,100293.25
2018-03-14T05:41:43.692Z,100294.23
2018-03-14T05:42:46.225Z,100300.86
2018-03-14T05:43:48.732Z,100299.08
2018-03-14T05:44:51.257Z,100296.34
2018-03-14T05:45:53.760Z,100295.93
2018-03-14T05:46:56.283Z,100300.05
2018-03-14T05:47:58.798Z,100305.16
2018-03-14T05:49:01.338Z,100305.55
2018-03-14T05:50:03.859Z,100302.41
2018-03-14T05:51:06.346Z,100307.09
2018-03-14T05:52:08.872Z,100303.94
2018-03-14T05:53:11.389Z,100300.79
2018-03-14T05:54:13.879Z,100305.48
2018-03-14T05:55:16.380Z,100312.52
2018-03-14T05:56:18.881Z,100306.55
2018-03-14T05:57:21.394Z,100310.44
2018-03-14T05:58:23.912Z,100312.78
2018-03-14T05:59:26.420Z,100314.31
2018-03-14T06:00:28.927Z,100313.67
2018-03-14T06:01:31.442Z,100311.66
2018-03-14T06:02:34.004Z,100313.20
2018-03-14T06:03:36.538Z,100307.84
2018-03-14T06:04:39.088Z,100314.06
2018-03-14T06:05:41.588Z,100311.08
2018-03-14T06:06:44.078Z,100313.99
2018-03-14T06:07:46.772Z,100315.37
2018-03-14T06:08:49.296Z,100316.10
2018-03-14T06:09:51.797Z,100314.89
2018-03-14T06:10:54.291Z,100313.11
2018-03-14T06:11:56.878Z,100312.71
2018-03-14T06:12:59.382Z,100312.47
2018-03-14T06:14:01.960Z,100317.56
2018-03-14T06:15:04.481Z,100320.48
2018-03-14T06:16:06.986Z,100318.53
2018-03-14T06:17:09.484Z,100321.05
2018-03-14T06:18:12.025Z,100319.83
2018-03-14T06:19:14.606Z,100323.55
2018-03-14T06:20:17.116Z,100325.50
2018-03-14T06:21:19.619Z,100320.00
2018-03-14T06:22:22.163Z,100327.84
2018-03-14T06:23:24.669Z,100325.26
2018-03-14T06:24:27.180Z,100325.26
2018-03-14T06:25:29.695Z,100323.88
2018-03-14T06:26:32.209Z,100322.52
2018-03-14T06:27:34.726Z,100324.28
2018-03-14T06:28:37.218Z,100323.08
2018-03-14T06:29:39.730Z,100327.60
2018-03-14T06:30:42.218Z,100329.95
2018-03-14T06:31:44.734Z,100332.70
2018-03-14T06:32:47.246Z,100328.98
2018-03-14T06:33:49.753Z,100328.58
2018-03-14T06:34:52.277Z,100332.05
2018-03-14T06:35:54.804Z,100332.45
2018-03-14T06:36:57.329Z,100334.80
2018-03-14T06:37:59.854Z,100336.74
2018-03-14T06:39:02.354Z,100341.27
2018-03-14T06:40:04.900Z,100344.42
2018-03-14T06:41:07.532Z,100340.30
2018-03-14T06:42:10.258Z,100346.36
2018-03-14T06:43:12.764Z,100343.05
2018-03-14T06:44:15.265Z,100340.87
2018-03-14T06:45:17.789Z,100341.11
2018-03-14T06:46:20.303Z,100341.11
2018-03-14T06:47:22.805Z,100342.08
2018-03-14T06:48:25.335Z,100338.92
2018-03-14T06:49:27.862Z,100337.55
2018-03-14T06:50:30.410Z,100332.05
2018-03-14T06:51:32.898Z,100336.02
2018-03-14T06:52:35.397Z,100339.56
2018-03-14T06:53:37.887Z,100340.13
2018-03-14T06:54:40.427Z,100341.51
2018-03-14T06:55:42.942Z,100335.61
2018-03-14T06:56:45.492Z,100336.58
2018-03-14T06:57:48.004Z,100340.13
2018-03-14T06:59:02.315Z,100337.95
2018-03-14T07:00:16.556Z,100335.61
2018-03-14T07:03:11.820Z,100338.52
2018-03-14T07:04:26.255Z,100341.67
2018-03-14T07:05:40.733Z,100345.39
2018-03-14T07:06:43.224Z,100351.45
2018-03-14T07:07:45.767Z,100356.14
2018-03-14T07:08:48.321Z,100350.78
2018-03-14T07:09:50.874Z,100350.24
2018-03-14T07:10:53.388Z,100354.50
2018-03-14T07:11:55.961Z,100357.81
2018-03-14T07:12:58.458Z,100357.65
2018-03-14T07:14:00.973Z,100348.20
2018-03-14T07:15:03.486Z,100359.59
2018-03-14T07:16:05.998Z,100356.04
2018-03-14T07:17:08.536Z,100361.12
2018-03-14T07:18:11.058Z,100357.58
2018-03-14T07:19:13.583Z,100357.17
2018-03-14T07:20:16.080Z,100355.16
2018-03-14T07:21:18.573Z,100357.34
2018-03-14T07:22:21.115Z,100355.96
2018-03-14T07:23:23.625Z,100350.06
2018-03-14T07:24:26.131Z,100357.73
2018-03-14T07:25:28.793Z,100358.14
2018-03-14T07:26:31.328Z,100357.58
2018-03-14T07:27:33.872Z,100348.77
2018-03-14T07:28:36.412Z,100354.50
2018-03-14T07:29:38.911Z,100353.69
2018-03-14T07:30:41.417Z,100349.97
2018-03-14T07:31:43.934Z,100356.14
2018-03-14T07:32:46.472Z,100361.06
2018-03-14T07:33:49.107Z,100355.22
2018-03-14T07:34:51.609Z,100355.53
2018-03-14T07:35:55.041Z,100355.31
2018-03-14T07:36:57.562Z,100358.06
2018-03-14T07:38:00.099Z,100358.79
2018-03-14T07:39:02.625Z,100357.08
2018-03-14T07:40:05.127Z,100356.19
2018-03-14T07:41:07.628Z,100364.36
2018-03-14T07:42:10.148Z,100352.89
2018-03-14T07:43:12.686Z,100353.78
2018-03-14T07:44:15.190Z,100357.02
2018-03-14T07:45:17.718Z,100353.94
2018-03-14T07:46:20.225Z,100350.14
2018-03-14T07:47:22.728Z,100355.96
2018-03-14T07:48:25.244Z,100356.69
2018-03-14T07:49:27.742Z,100354.59
2018-03-14T07:50:30.250Z,100354.92
2018-03-14T07:51:32.765Z,100361.31
2018-03-14T07:52:35.343Z,100357.45
2018-03-14T07:53:37.888Z,100357.28
2018-03-14T07:54:40.463Z,100356.20
2018-03-14T07:55:42.970Z,100360.98
2018-03-14T07:56:45.482Z,100364.22
2018-03-14T07:57:47.993Z,100364.47
2018-03-14T07:58:50.520Z,100364.87
2018-03-14T07:59:53.174Z,100370.52
2018-03-14T08:00:55.688Z,100366.97
2018-03-14T08:01:58.234Z,100366.24
2018-03-14T08:03:00.756Z,100368.42
2018-03-14T08:04:03.292Z,100365.67
2018-03-14T08:05:05.803Z,100371.41
2018-03-14T08:06:08.321Z,100376.17
2018-03-14T08:07:10.858Z,100371.32
2018-03-14T08:08:13.359Z,100369.22
2018-03-14T08:09:15.893Z,100369.70
2018-03-14T08:10:18.403Z,100377.48
2018-03-14T08:11:20.912Z,100377.89
2018-03-14T08:12:23.474Z,100375.30
2018-03-14T08:13:26.025Z,100369.94
2018-03-14T08:14:28.555Z,100371.48
2018-03-14T08:15:31.064Z,100371.64
2018-03-14T08:16:33.562Z,100374.88
2018-03-14T08:17:36.103Z,100368.26
2018-03-14T08:18:38.673Z,100367.83
2018-03-14T08:19:41.200Z,100373.70
2018-03-14T08:20:43.709Z,100370.48
2018-03-14T08:21:46.226Z,100370.08
2018-03-14T08:22:48.746Z,100370.14
2018-03-14T08:23:51.242Z,100360.93
2018-03-14T08:24:53.763Z,100360.86
2018-03-14T08:25:56.281Z,100357.87
2018-03-14T08:26:58.801Z,100357.62
2018-03-14T08:28:01.329Z,100362.87
2018-03-14T08:29:03.856Z,100365.02
2018-03-14T08:30:06.404Z,100356.38
2018-03-14T08:31:08.930Z,100358.81
2018-03-14T08:32:11.436Z,100364.57
2018-03-14T08:33:13.938Z,100360.70
2018-03-14T08:34:16.452Z,100359.64
2018-03-14T08:35:18.982Z,100366.58
2018-03-14T08:36:21.488Z,100364.16
2018-03-14T08:37:24.010Z,100369.84
2018-03-14T08:38:26.512Z,100369.59
2018-03-14T08:39:29.020Z,100369.75
2018-03-14T08:40:31.532Z,100368.86
2018-03-14T08:41:34.055Z,100369.09
2018-03-14T08:42:36.576Z,100369.91
2018-03-14T08:43:39.088Z,100369.83
2018-03-14T08:44:41.610Z,100366.36
2018-03-14T08:45:44.157Z,100371.77
2018-03-14T08:46:46.719Z,100366.28
2018-03-14T08:47:49.367Z,100357.64
2018-03-14T08:48:51.875Z,100358.21
2018-03-14T08:49:54.391Z,100364.91
2018-03-14T08:50:56.936Z,100360.30
2018-03-14T08:51:59.523Z,100367.25
2018-03-14T08:53:02.050Z,100370.31
2018-03-14T08:54:04.573Z,100368.05
2018-03-14T08:55:07.109Z,100369.34
2018-03-14T08:56:09.765Z,100366.14
2018-03-14T08:57:12.270Z,100370.91
2018-03-14T08:58:14.783Z,100367.38
2018-03-14T08:59:17.319Z,100371.48
2018-03-14T09:00:19.832Z,100362.19
2018-03-14T09:01:22.467Z,100364.39
2018-03-14T09:02:25.027Z,100370.68
2018-03-14T09:03:27.679Z,100369.78
2018-03-14T09:04:30.174Z,100368.91
2018-03-14T09:05:32.702Z,100371.25
2018-03-14T09:06:35.236Z,100363.88
2018-03-14T09:07:37.767Z,100371.33
2018-03-14T09:08:40.284Z,100366.70
2018-03-14T09:09:43.001Z,100369.13
2018-03-14T09:10:45.522Z,100372.59
2018-03-14T09:11:48.039Z,100367.17
2018-03-14T09:12:50.561Z,100373.55
2018-03-14T09:13:53.087Z,100372.17
2018-03-14T09:14:55.760Z,100371.84
2018-03-14T09:15:58.327Z,100370.95
2018-03-14T09:17:00.868Z,100372.43
2018-03-14T09:18:03.375Z,100367.00
2018-03-14T09:19:05.888Z,100366.91
2018-03-14T09:20:08.388Z,100368.51
2018-03-14T09:21:10.919Z,100374.19
2018-03-14T09:22:13.459Z,100379.73
2018-03-14T09:23:15.967Z,100379.95
2018-03-14T09:24:18.477Z,100376.08
2018-03-14T09:25:21.004Z,100374.38
2018-03-14T09:26:23.506Z,100373.95
2018-03-14T09:27:26.041Z,100372.81
2018-03-14T09:28:28.586Z,100380.64
2018-03-14T09:29:31.101Z,100379.98
2018-03-14T09:30:33.772Z,100375.75
2018-03-14T09:31:36.313Z,100383.20
2018-03-14T09:32:38.908Z,100376.80
2018-03-14T09:33:41.420Z,100379.05
2018-03-14T09:34:43.977Z,100380.97
2018-03-14T09:35:46.548Z,100377.62
2018-03-14T09:36:49.073Z,100378.12
2018-03-14T09:37:51.633Z,100375.44
2018-03-14T09:38:54.157Z,100377.05
2018-03-14T09:39:56.698Z,100381.65
2018-03-14T09:40:59.194Z,100373.69
2018-03-14T09:42:01.704Z,100379.44
2018-03-14T09:43:10.912Z,100378.12
2018-03-14T09:44:13.467Z,100375.84
2018-03-14T09:45:16.012Z,100377.05
2018-03-14T09:46:18.492Z,100380.31
2018-03-14T09:47:21.004Z,100377.79
2018-03-14T09:48:23.901Z,100378.43
2018-03-14T09:49:26.555Z,100378.43
2018-03-14T09:50:29.055Z,100377.92
2018-03-14T09:51:31.574Z,100379.13
2018-03-14T09:52:34.080Z,100375.81
2018-03-14T09:53:36.622Z,100374.67
2018-03-14T09:54:39.132Z,100373.77
2018-03-14T09:55:41.618Z,100380.48
2018-03-14T09:56:44.115Z,100377.55
2018-03-14T09:57:46.620Z,100379.91
2018-03-14T09:58:49.148Z,100373.42
2018-03-14T09:59:51.653Z,100381.69
2018-03-14T10:00:54.160Z,100379.91
2018-03-14T10:01:56.650Z,100370.67
2018-03-14T10:02:59.160Z,100372.22
2018-03-14T10:04:01.697Z,100374.23
2018-03-14T10:05:04.186Z,100376.58
2018-03-14T10:06:06.692Z,100376.98
2018-03-14T10:07:09.209Z,100382.33
2018-03-14T10:08:11.770Z,100373.19
2018-03-14T10:09:14.284Z,100374.56
2018-03-14T10:10:16.779Z,100381.05
2018-03-14T10:11:19.288Z,100379.17
2018-03-14T10:12:21.796Z,100378.53
2018-03-14T10:13:24.302Z,100375.54
2018-03-14T10:14:26.828Z,100374.97
2018-03-14T10:15:29.326Z,100376.92
2018-03-14T10:16:31.844Z,100380.88
2018-03-14T10:17:34.353Z,100372.78
2018-03-14T10:18:36.871Z,100374.73
2018-03-14T10:19:39.487Z,100379.27
2018-03-14T10:20:42.001Z,100380.58
2018-03-14T10:21:44.487Z,100373.69
2018-03-14T10:22:47.014Z,100376.11
2018-03-14T10:23:49.566Z,100376.21
2018-03-14T10:24:52.100Z,100373.39
2018-03-14T10:25:54.611Z,100377.28
2018-03-14T10:26:57.158Z,100375.03
2018-03-14T10:27:59.766Z,100373.49
2018-03-14T10:29:02.286Z,100370.73
2018-03-14T10:30:04.833Z,100369.30
2018-03-14T10:31:07.344Z,100369.63
2018-03-14T10:32:10.225Z,100362.17
2018-03-14T10:33:12.764Z,100361.61
2018-03-14T10:34:15.314Z,100364.93
2018-03-14T10:35:17.877Z,100364.19
2018-03-14T10:36:20.549Z,100365.64
2018-03-14T10:37:23.109Z,100368.83
2018-03-14T10:38:26.691Z,100368.36
2018-03-14T10:39:29.456Z,100370.64
2018-03-14T10:40:32.055Z,100368.45
2018-03-14T10:41:34.575Z,100370.56
2018-03-14T10:42:37.108Z,100375.34
2018-03-14T10:43:39.602Z,100363.35
2018-03-14T10:44:42.120Z,100368.86
2018-03-14T10:45:44.717Z,100371.84
2018-03-14T10:46:47.232Z,100369.09
2018-03-14T10:47:49.737Z,100365.77
2018-03-14T10:48:52.229Z,100362.84
2018-03-14T10:49:54.734Z,100365.84
2018-03-14T10:50:57.792Z,100361.14
2018-03-14T10:52:00.312Z,100358.78
2018-03-14T10:53:02.862Z,100360.97
2018-03-14T10:54:05.385Z,100362.17
2018-03-14T10:55:07.907Z,100349.22
2018-03-14T10:56:10.451Z,100354.96
2018-03-14T10:57:12.982Z,100350.83
2018-03-14T10:58:15.861Z,100350.83
2018-03-14T10:59:18.400Z,100350.66
2018-03-14T11:00:26.915Z,100340.69
2018-03-14T11:01:34.973Z,100345.39
2018-03-14T11:02:43.330Z,100339.58
2018-03-14T11:03:45.863Z,100338.77
2018-03-14T11:04:48.356Z,100334.31
2018-03-14T11:05:51.005Z,100334.71
2018-03-14T11:06:53.529Z,100333.73
2018-03-14T11:07:56.025Z,100328.23
2018-03-14T11:08:58.541Z,100336.09
2018-03-14T11:10:01.044Z,100328.97
2018-03-14T11:11:03.586Z,100332.02
2018-03-14T11:12:06.102Z,100331.56
2018-03-14T11:13:08.710Z,100333.10
2018-03-14T11:14:11.347Z,100330.11
2018-03-14T11:15:13.897Z,100333.77
2018-03-14T11:16:16.457Z,100337.84
2018-03-14T11:17:18.995Z,100333.47
2018-03-14T11:18:21.514Z,100327.91
2018-03-14T11:19:24.028Z,100325.48
2018-03-14T11:20:26.555Z,100331.16
2018-03-14T11:21:29.100Z,100317.80
2018-03-14T11:22:31.646Z,100316.83
2018-03-14T11:23:34.281Z,100310.41
2018-03-14T11:24:36.787Z,100309.03
2018-03-14T11:25:39.316Z,100314.14
2018-03-14T11:26:41.813Z,100312.77
2018-03-14T11:27:44.359Z,100315.62
2018-03-14T11:28:46.882Z,100319.44
2018-03-14T11:29:49.393Z,100319.04
2018-03-14T11:30:51.901Z,100317.66
2018-03-14T11:31:54.407Z,100317.59
2018-03-14T11:32:56.977Z,100319.88
2018-03-14T11:33:59.499Z,100315.92
2018-03-14T11:35:02.004Z,100315.75
2018-03-14T11:36:04.504Z,100315.34
2018-03-14T11:37:06.986Z,100316.39
2018-03-14T11:38:09.921Z,100318.97
2018-03-14T11:39:12.434Z,100315.65
2018-03-14T11:40:14.926Z,100310.14
2018-03-14T11:41:17.431Z,100310.14
2018-03-14T11:42:19.969Z,100306.02
2018-03-14T11:43:22.496Z,100302.45
2018-03-14T11:44:25.077Z,100301.82
2018-03-14T11:45:27.608Z,100304.58
2018-03-14T11:46:30.133Z,100294.94
2018-03-14T11:47:32.671Z,100296.22
2018-03-14T11:48:35.233Z,100299.61
2018-03-14T11:49:37.747Z,100288.43
2018-03-14T11:50:40.295Z,100287.45
2018-03-14T11:51:42.894Z,100287.69
2018-03-14T11:52:45.399Z,100285.74
2018-03-14T11:53:47.902Z,100283.63
2018-03-14T11:54:50.412Z,100278.29
2018-03-14T11:55:52.945Z,100278.45
2018-03-14T11:56:55.449Z,100272.38